createdAt,value
2019-04-16T00:02:11.057Z,101675.34
2019-04-16T00:04:59.980Z,101671.38
2019-04-16T00:07:55.823Z,101679.01
2019-04-16T00:10:38.541Z,101676.48
2019-04-16T00:13:21.218Z,101678.19
2019-04-16T00:15:52.633Z,101668.50
2019-04-16T00:18:22.977Z,101676.84
2019-04-16T00:21:10.879Z,101667.00
2019-04-16T00:23:59.779Z,101672.65
2019-04-16T00:26:29.933Z,101670.12
2019-04-16T00:29:02.274Z,101663.61
2019-04-16T00:31:34.332Z,101659.98
2019-04-16T00:34:04.274Z,101665.52
2019-04-16T00:36:34.039Z,101656.16
2019-04-16T00:39:05.309Z,101655.41
2019-04-16T00:41:35.835Z,101651.28
2019-04-16T00:44:05.766Z,101656.21
2019-04-16T00:46:35.962Z,101656.17
2019-04-16T00:49:06.113Z,101650.76
2019-04-16T00:51:36.005Z,101658.41
2019-04-16T00:54:09.865Z,101655.68
2019-04-16T00:56:37.607Z,101651.03
2019-04-16T00:59:07.832Z,101663.63
2019-04-16T01:01:37.670Z,101651.96
2019-04-16T01:04:07.566Z,101643.52
2019-04-16T01:06:37.905Z,101654.05
2019-04-16T01:09:09.263Z,101652.22
2019-04-16T01:11:39.220Z,101650.89
2019-04-16T01:14:09.261Z,101655.35
2019-04-16T01:16:39.226Z,101656.90
2019-04-16T01:19:10.155Z,101649.17
2019-04-16T01:21:44.625Z,101655.56
2019-04-16T01:24:12.269Z,101658.20
2019-04-16T01:26:42.079Z,101655.95
2019-04-16T01:29:13.503Z,101655.95
2019-04-16T01:31:52.012Z,101652.70
2019-04-16T01:34:43.317Z,101650.92
2019-04-16T01:37:25.444Z,101653.56
2019-04-16T01:39:53.492Z,101654.34
2019-04-16T01:42:24.267Z,101655.69
2019-04-16T01:44:53.973Z,101653.29
2019-04-16T01:47:23.828Z,101655.16
2019-04-16T01:49:54.311Z,101655.16
2019-04-16T01:52:24.300Z,101660.67
2019-04-16T01:54:57.853Z,101650.22
2019-04-16T01:57:28.391Z,101647.48
2019-04-16T01:59:58.187Z,101655.10
2019-04-16T02:02:28.096Z,101654.04
2019-04-16T02:04:59.293Z,101654.04
2019-04-16T02:07:29.061Z,101656.10
2019-04-16T02:09:59.131Z,101656.10
2019-04-16T02:12:29.072Z,101652.64
2019-04-16T02:14:58.955Z,101659.02
2019-04-16T02:17:28.825Z,101658.62
2019-04-16T02:19:58.782Z,101666.95
2019-04-16T02:22:30.556Z,101656.64
2019-04-16T02:25:00.525Z,101652.59
2019-04-16T02:27:30.401Z,101652.59
2019-04-16T02:30:02.660Z,101655.75
2019-04-16T02:32:33.332Z,101661.98
2019-04-16T02:35:03.542Z,101660.54
2019-04-16T02:37:36.326Z,101657.98
2019-04-16T02:40:05.748Z,101649.21
2019-04-16T02:42:36.694Z,101646.29
2019-04-16T02:45:07.041Z,101646.03
2019-04-16T02:47:41.785Z,101642.98
2019-04-16T02:50:12.059Z,101642.98
2019-04-16T02:52:52.358Z,101644.50
2019-04-16T02:55:44.169Z,101636.97
2019-04-16T02:58:17.594Z,101648.52
2019-04-16T03:01:25.030Z,101647.91
2019-04-16T03:03:59.858Z,101641.25
2019-04-16T03:06:32.021Z,101642.77
2019-04-16T03:09:01.803Z,101617.28
2019-04-16T03:11:33.194Z,101636.48
2019-04-16T03:14:03.286Z,101633.25
2019-04-16T03:16:58.609Z,101635.31
2019-04-16T03:19:32.654Z,101642.03
2019-04-16T03:22:03.309Z,101634.84
2019-04-16T03:24:33.642Z,101632.82
2019-04-16T03:27:05.219Z,101629.02
2019-04-16T03:29:35.696Z,101629.48
2019-04-16T03:32:06.179Z,101626.23
2019-04-16T03:34:36.702Z,101623.67
2019-04-16T03:37:06.617Z,101622.80
2019-04-16T03:39:36.495Z,101624.98
2019-04-16T03:42:06.317Z,101623.34
2019-04-16T03:44:37.307Z,101626.86
2019-04-16T03:47:07.365Z,101620.20
2019-04-16T03:49:37.221Z,101612.87
2019-04-16T03:52:08.766Z,101614.25
2019-04-16T03:54:38.709Z,101611.48
2019-04-16T03:57:08.848Z,101603.95
2019-04-16T03:59:40.046Z,101609.27
2019-04-16T04:02:10.659Z,101602.52
2019-04-16T04:04:40.421Z,101611.48
2019-04-16T04:07:12.327Z,101602.77
2019-04-16T04:09:43.394Z,101607.31
2019-04-16T04:12:14.320Z,101598.53
2019-04-16T04:14:44.661Z,101599.03
2019-04-16T04:17:14.463Z,101598.93
2019-04-16T04:19:46.242Z,101591.39
2019-04-16T04:22:16.425Z,101586.81
2019-04-16T04:24:46.668Z,101582.55
2019-04-16T04:27:19.205Z,101578.61
2019-04-16T04:29:48.572Z,101580.66
2019-04-16T04:32:18.585Z,101578.87
2019-04-16T04:34:49.584Z,101579.00
2019-04-16T04:37:19.847Z,101589.28
2019-04-16T04:39:50.099Z,101588.38
2019-04-16T04:42:19.980Z,101588.81
2019-04-16T04:44:49.910Z,101592.34
2019-04-16T04:47:20.237Z,101589.62
2019-04-16T04:49:50.449Z,101591.23
2019-04-16T04:52:20.729Z,101593.02
2019-04-16T04:54:51.375Z,101590.32
2019-04-16T04:57:22.509Z,101590.78
2019-04-16T04:59:53.387Z,101598.24
2019-04-16T05:02:24.473Z,101600.73
2019-04-16T05:04:59.889Z,101598.81
2019-04-16T05:07:31.153Z,101594.05
2019-04-16T05:10:01.054Z,101597.98
2019-04-16T05:12:30.990Z,101599.80
2019-04-16T05:15:03.754Z,101594.70
2019-04-16T05:17:32.393Z,101595.23
2019-04-16T05:20:02.311Z,101600.62
2019-04-16T05:22:33.101Z,101597.33
2019-04-16T05:25:03.730Z,101602.45
2019-04-16T05:27:40.279Z,101604.34
2019-04-16T05:30:07.145Z,101602.47
2019-04-16T05:32:37.107Z,101608.36
2019-04-16T05:35:10.156Z,101610.83
2019-04-16T05:37:38.930Z,101607.19
2019-04-16T05:40:10.079Z,101602.07
2019-04-16T05:42:40.242Z,101600.63
2019-04-16T05:45:10.186Z,101599.29
2019-04-16T05:47:40.051Z,101595.47
2019-04-16T05:50:10.562Z,101593.45
2019-04-16T05:52:41.747Z,101597.35
2019-04-16T05:55:30.705Z,101595.03
2019-04-16T05:58:00.599Z,101589.58
2019-04-16T06:00:38.319Z,101588.00
2019-04-16T06:03:07.445Z,101586.55
2019-04-16T06:05:37.559Z,101579.70
2019-04-16T06:08:11.529Z,101582.64
2019-04-16T06:10:41.623Z,101593.58
2019-04-16T06:13:29.277Z,101585.95
2019-04-16T06:16:14.568Z,101553.34
2019-04-16T06:19:04.186Z,101590.34
2019-04-16T06:21:56.454Z,101586.11
2019-04-16T06:25:08.496Z,101593.48
2019-04-16T06:27:51.254Z,101589.66
2019-04-16T06:30:32.737Z,101588.03
2019-04-16T06:33:04.539Z,101587.59
2019-04-16T06:35:59.195Z,101583.57
2019-04-16T06:38:32.767Z,101582.83
2019-04-16T06:41:12.165Z,101587.30
2019-04-16T06:43:44.870Z,101590.71
2019-04-16T06:46:23.029Z,101590.88
2019-04-16T06:49:17.751Z,101586.16
2019-04-16T06:52:16.022Z,101599.31
2019-04-16T06:55:03.673Z,101592.50
2019-04-16T06:58:03.353Z,101588.84
2019-04-16T07:00:52.060Z,101590.21
2019-04-16T07:03:47.123Z,101590.63
2019-04-16T07:06:36.302Z,101592.91
2019-04-16T07:09:41.101Z,101579.36
2019-04-16T07:12:07.860Z,101578.47
2019-04-16T07:14:38.333Z,101575.84
2019-04-16T07:17:08.366Z,101572.17
2019-04-16T07:19:39.447Z,101574.99
2019-04-16T07:22:10.143Z,101574.97
2019-04-16T07:24:40.359Z,101583.28
2019-04-16T07:27:10.282Z,101579.13
2019-04-16T07:29:50.133Z,101579.94
2019-04-16T07:32:30.411Z,101574.54
2019-04-16T07:35:07.983Z,101574.54
2019-04-16T07:37:56.715Z,101573.73
2019-04-16T07:40:51.357Z,101569.53
2019-04-16T07:43:39.222Z,101568.92
2019-04-16T07:46:37.455Z,101564.39
2019-04-16T07:49:32.646Z,101562.95
2019-04-16T07:52:17.851Z,101563.00
2019-04-16T07:55:05.328Z,101562.31
2019-04-16T07:57:35.212Z,101566.49
2019-04-16T08:00:09.503Z,101568.46
2019-04-16T08:02:37.967Z,101569.98
2019-04-16T08:05:09.584Z,101558.97
2019-04-16T08:07:39.634Z,101563.19
2019-04-16T08:10:09.736Z,101561.25
2019-04-16T08:12:42.213Z,101557.14
2019-04-16T08:15:15.219Z,101561.25
2019-04-16T08:17:44.126Z,101561.81
2019-04-16T08:20:14.433Z,101561.28
2019-04-16T08:22:47.193Z,101560.05
2019-04-16T08:25:19.219Z,101557.73
2019-04-16T08:27:50.743Z,101550.03
2019-04-16T08:30:20.799Z,101555.05
2019-04-16T08:32:50.739Z,101558.09
2019-04-16T08:35:20.685Z,101559.33
2019-04-16T08:37:50.623Z,101555.21
2019-04-16T08:40:20.583Z,101552.50
2019-04-16T08:42:50.589Z,101551.74
2019-04-16T08:45:20.967Z,101550.98
2019-04-16T08:47:50.824Z,101548.95
2019-04-16T08:50:25.809Z,101535.61
2019-04-16T08:52:52.826Z,101537.08
2019-04-16T08:55:23.690Z,101533.23
2019-04-16T08:57:55.186Z,101530.66
2019-04-16T09:00:26.195Z,101525.39
2019-04-16T09:02:58.717Z,101520.48
2019-04-16T09:05:27.723Z,101519.82
2019-04-16T09:08:12.610Z,101511.34
2019-04-16T09:10:35.449Z,101524.27
2019-04-16T09:13:07.332Z,101517.20
2019-04-16T09:15:38.025Z,101516.86
2019-04-16T09:18:17.700Z,101514.01
2019-04-16T09:20:47.634Z,101515.00
2019-04-16T09:23:17.569Z,101511.69
2019-04-16T09:26:23.537Z,101504.06
2019-04-16T09:29:08.131Z,101509.41
2019-04-16T09:31:55.326Z,101510.34
2019-04-16T09:34:43.106Z,101509.29
2019-04-16T09:37:28.714Z,101508.55
2019-04-16T09:40:18.527Z,101507.80
2019-04-16T09:42:48.928Z,101510.79
2019-04-16T09:45:19.603Z,101505.13
2019-04-16T09:47:49.619Z,101502.77
2019-04-16T09:50:19.381Z,101503.97
2019-04-16T09:52:49.270Z,101500.47
2019-04-16T09:55:19.660Z,101496.45
2019-04-16T09:57:49.777Z,101501.59
2019-04-16T10:00:24.369Z,101492.41
2019-04-16T10:02:55.143Z,101499.08
2019-04-16T10:05:26.504Z,101491.97
2019-04-16T10:07:57.193Z,101482.72
2019-04-16T10:10:27.947Z,101473.94
2019-04-16T10:12:59.445Z,101474.33
2019-04-16T10:15:29.497Z,101488.27
2019-04-16T10:18:01.503Z,101486.08
2019-04-16T10:20:31.132Z,101486.92
2019-04-16T10:23:03.120Z,101485.45
2019-04-16T10:25:33.766Z,101473.30
2019-04-16T10:28:12.428Z,101455.11
2019-04-16T10:30:46.885Z,101467.31
2019-04-16T10:33:15.918Z,101452.33
2019-04-16T10:35:45.887Z,101449.20
2019-04-16T10:38:28.223Z,101450.31
2019-04-16T10:41:07.775Z,101443.97
2019-04-16T10:43:45.714Z,101442.98
2019-04-16T10:46:34.891Z,101440.61
2019-04-16T10:49:10.190Z,101435.58
2019-04-16T10:51:50.524Z,101431.25
2019-04-16T10:54:57.723Z,101429.25
2019-04-16T10:57:38.495Z,101427.02
2019-04-16T11:00:50.293Z,101433.98
2019-04-16T11:03:34.491Z,101433.41
2019-04-16T11:06:14.092Z,101434.67
2019-04-16T11:08:44.073Z,101427.27
2019-04-16T11:11:13.903Z,101424.34
2019-04-16T11:13:58.888Z,101414.47
2019-04-16T11:16:18.846Z,101413.60
2019-04-16T11:18:49.104Z,101422.95
2019-04-16T11:21:19.174Z,101417.53
2019-04-16T11:23:50.238Z,101421.59
2019-04-16T11:26:20.345Z,101413.37
2019-04-16T11:28:50.247Z,101404.36
2019-04-16T11:31:21.453Z,101408.94
2019-04-16T11:33:51.487Z,101402.70
2019-04-16T11:36:21.715Z,101408.61
2019-04-16T11:38:51.795Z,101406.44
2019-04-16T11:41:21.704Z,101402.41
2019-04-16T11:43:51.590Z,101386.92
2019-04-16T11:46:21.968Z,101399.91
2019-04-16T11:48:51.841Z,101401.10
2019-04-16T11:51:21.927Z,101393.91
2019-04-16T11:53:51.736Z,101397.47
2019-04-16T11:56:22.657Z,101399.90
2019-04-16T11:58:52.929Z,101391.42
2019-04-16T12:02:00.229Z,101380.11
2019-04-16T12:04:47.828Z,101392.80
2019-04-16T12:07:21.662Z,101400.48
2019-04-16T12:10:09.848Z,101400.14
2019-04-16T12:13:07.717Z,101415.05
2019-04-16T12:15:58.020Z,101390.97
2019-04-16T12:18:32.316Z,101402.66
2019-04-16T12:21:06.283Z,101402.87
2019-04-16T12:24:01.284Z,101395.73
2019-04-16T12:26:50.386Z,101399.64
2019-04-16T12:29:30.645Z,101382.77
2019-04-16T12:32:08.976Z,101404.94
2019-04-16T12:35:01.638Z,101399.45
2019-04-16T12:37:49.490Z,101398.25
2019-04-16T12:40:28.066Z,101402.41
2019-04-16T12:43:14.715Z,101392.26
2019-04-16T12:45:53.417Z,101389.23
2019-04-16T12:48:37.819Z,101396.06
2019-04-16T12:51:41.819Z,101392.27
2019-04-16T12:54:29.544Z,101392.91
2019-04-16T12:57:16.694Z,101395.28
2019-04-16T13:00:26.119Z,101317.28
2019-04-16T13:03:10.630Z,101386.52
2019-04-16T13:06:01.383Z,101373.23
2019-04-16T13:08:53.674Z,101376.54
2019-04-16T13:11:36.461Z,101380.59
2019-04-16T13:14:24.283Z,101361.31
2019-04-16T13:17:04.375Z,101373.47
2019-04-16T13:19:53.347Z,101353.46
2019-04-16T13:22:27.142Z,101369.06
2019-04-16T13:25:05.915Z,101359.44
2019-04-16T13:27:37.701Z,101365.08
2019-04-16T13:30:09.089Z,101362.02
2019-04-16T13:32:39.187Z,101355.30
2019-04-16T13:35:09.363Z,101350.86
2019-04-16T13:37:39.251Z,101360.13
2019-04-16T13:40:15.668Z,101349.96
2019-04-16T13:42:45.779Z,101358.35
2019-04-16T13:45:25.947Z,101356.98
2019-04-16T13:47:55.724Z,101345.19
2019-04-16T13:50:40.459Z,101356.34
2019-04-16T13:53:28.223Z,101352.77
2019-04-16T13:56:17.443Z,101347.06
2019-04-16T13:58:56.131Z,101355.84
2019-04-16T14:01:29.683Z,101357.23
2019-04-16T14:03:59.553Z,101352.90
2019-04-16T14:06:29.547Z,101352.77
2019-04-16T14:08:59.572Z,101345.03
2019-04-16T14:11:29.710Z,101346.67
2019-04-16T14:13:59.655Z,101354.30
2019-04-16T14:16:29.590Z,101342.25
2019-04-16T14:19:02.524Z,101349.86
2019-04-16T14:21:32.490Z,101348.22
2019-04-16T14:24:02.650Z,101340.98
2019-04-16T14:26:32.814Z,101344.78
2019-04-16T14:29:05.941Z,101354.06
2019-04-16T14:31:34.544Z,101346.81
2019-04-16T14:34:36.802Z,101349.86
2019-04-16T14:37:11.398Z,101342.13
2019-04-16T14:39:44.357Z,101339.06
2019-04-16T14:42:15.178Z,101335.78
2019-04-16T14:44:49.128Z,101341.12
2019-04-16T14:47:19.010Z,101339.84
2019-04-16T14:49:50.844Z,101338.69
2019-04-16T14:52:20.508Z,101343.14
2019-04-16T14:54:57.861Z,101337.69
2019-04-16T14:57:27.882Z,101342.39
2019-04-16T15:00:16.405Z,101332.47
2019-04-16T15:02:51.537Z,101334.63
2019-04-16T15:05:39.483Z,101340.97
2019-04-16T15:08:31.337Z,101343.92
2019-04-16T15:11:31.172Z,101341.63
2019-04-16T15:14:08.698Z,101338.97
2019-04-16T15:16:43.073Z,101342.13
2019-04-16T15:19:29.825Z,101335.91
2019-04-16T15:22:23.034Z,101338.08
2019-04-16T15:25:07.531Z,101334.75
2019-04-16T15:27:55.162Z,101333.13
2019-04-16T15:30:43.568Z,101331.58
2019-04-16T15:33:50.736Z,101331.83
2019-04-16T15:36:30.988Z,101335.26
2019-04-16T15:39:10.000Z,101338.56
2019-04-16T15:41:46.739Z,101340.73
2019-04-16T15:44:23.670Z,101336.28
2019-04-16T15:47:14.292Z,101338.68
2019-04-16T15:50:00.041Z,101342.77
2019-04-16T15:53:07.741Z,101340.36
2019-04-16T15:56:12.062Z,101346.16
2019-04-16T15:58:49.580Z,101342.63
2019-04-16T16:01:50.579Z,101349.59
2019-04-16T16:04:35.779Z,101346.44
2019-04-16T16:07:11.921Z,101352.02
2019-04-16T16:09:59.681Z,101345.42
2019-04-16T16:12:31.544Z,101353.13
2019-04-16T16:15:02.157Z,101348.17
2019-04-16T16:17:33.600Z,101350.59
2019-04-16T16:20:03.735Z,101357.30
2019-04-16T16:22:33.545Z,101353.38
2019-04-16T16:25:05.867Z,101355.55
2019-04-16T16:27:35.058Z,101354.12
2019-04-16T16:30:06.143Z,101341.02
2019-04-16T16:32:36.040Z,101366.39
2019-04-16T16:35:06.581Z,101362.70
2019-04-16T16:37:37.522Z,101368.64
2019-04-16T16:40:07.887Z,101367.25
2019-04-16T16:42:38.080Z,101361.68
2019-04-16T16:45:09.225Z,101363.77
2019-04-16T16:47:40.565Z,101370.60
2019-04-16T16:50:14.158Z,101374.89
2019-04-16T16:53:01.140Z,101373.13
2019-04-16T16:55:49.420Z,101369.81
2019-04-16T16:58:41.519Z,101364.33
2019-04-16T17:01:27.244Z,101372.82
2019-04-16T17:04:07.155Z,101368.36
2019-04-16T17:06:37.232Z,101373.67
2019-04-16T17:09:09.011Z,101377.05
2019-04-16T17:11:40.186Z,101383.14
2019-04-16T17:14:10.721Z,101383.63
2019-04-16T17:16:40.535Z,101376.00
2019-04-16T17:19:10.323Z,101376.98
2019-04-16T17:21:40.239Z,101381.26
2019-04-16T17:24:13.282Z,101391.14
2019-04-16T17:26:46.943Z,101384.38
2019-04-16T17:29:16.923Z,101383.75
2019-04-16T17:31:48.130Z,101391.72
2019-04-16T17:34:18.333Z,101390.03
2019-04-16T17:36:48.221Z,101384.44
2019-04-16T17:39:33.024Z,101396.16
2019-04-16T17:42:05.697Z,101400.83
2019-04-16T17:44:55.085Z,101406.34
2019-04-16T17:47:50.051Z,101412.23
2019-04-16T17:50:30.478Z,101412.34
2019-04-16T17:53:10.145Z,101420.41
2019-04-16T17:55:58.046Z,101423.64
2019-04-16T17:58:36.465Z,101422.80
2019-04-16T18:01:24.397Z,101431.33
2019-04-16T18:04:15.302Z,101434.72
2019-04-16T18:06:59.994Z,101434.91
2019-04-16T18:09:36.246Z,101435.37
2019-04-16T18:12:35.071Z,101443.28
2019-04-16T18:15:24.798Z,101446.86
2019-04-16T18:18:02.490Z,101437.80
2019-04-16T18:21:00.497Z,101444.30
2019-04-16T18:23:48.630Z,101447.51
2019-04-16T18:26:47.034Z,101454.55
2019-04-16T18:29:21.551Z,101451.84
2019-04-16T18:32:07.039Z,101465.34
2019-04-16T18:34:55.507Z,101461.55
2019-04-16T18:37:30.728Z,101469.00
2019-04-16T18:40:22.498Z,101470.20
2019-04-16T18:43:25.192Z,101475.93
2019-04-16T18:46:15.299Z,101472.44
2019-04-16T18:48:46.125Z,101475.78
2019-04-16T18:51:15.915Z,101481.50
2019-04-16T18:53:45.711Z,101484.11
2019-04-16T18:56:15.687Z,101479.64
2019-04-16T18:58:45.746Z,101479.89
2019-04-16T19:01:24.610Z,101488.64
2019-04-16T19:03:52.879Z,101489.98
2019-04-16T19:06:22.816Z,101486.95
2019-04-16T19:08:52.901Z,101497.45
2019-04-16T19:11:22.880Z,101493.96
2019-04-16T19:13:53.602Z,101494.91
2019-04-16T19:16:23.522Z,101495.05
2019-04-16T19:18:53.663Z,101504.25
2019-04-16T19:21:23.764Z,101510.11
2019-04-16T19:23:53.525Z,101507.43
2019-04-16T19:26:23.519Z,101510.93
2019-04-16T19:28:53.577Z,101525.11
2019-04-16T19:31:25.060Z,101521.97
2019-04-16T19:33:54.885Z,101527.30
2019-04-16T19:36:27.564Z,101531.87
2019-04-16T19:38:56.673Z,101539.67
2019-04-16T19:41:26.793Z,101536.84
2019-04-16T19:43:56.587Z,101545.06
2019-04-16T19:46:26.473Z,101540.44
2019-04-16T19:48:56.669Z,101548.43
2019-04-16T19:51:27.778Z,101555.56
2019-04-16T19:53:58.656Z,101554.57
2019-04-16T19:56:28.657Z,101556.25
2019-04-16T19:58:58.520Z,101559.20
2019-04-16T20:01:28.369Z,101558.56
2019-04-16T20:03:58.322Z,101559.19
2019-04-16T20:06:28.265Z,101564.84
2019-04-16T20:08:58.422Z,101563.30
2019-04-16T20:11:28.431Z,101568.25
2019-04-16T20:14:01.107Z,101557.67
2019-04-16T20:16:30.247Z,101568.02
2019-04-16T20:19:00.332Z,101559.60
2019-04-16T20:21:30.349Z,101563.08
2019-04-16T20:24:00.403Z,101564.36
2019-04-16T20:26:32.654Z,101567.12
2019-04-16T20:29:02.248Z,101566.39
2019-04-16T20:31:33.283Z,101561.96
2019-04-16T20:34:03.197Z,101568.67
2019-04-16T20:36:33.110Z,101566.20
2019-04-16T20:39:02.964Z,101571.29
2019-04-16T20:41:34.474Z,101562.72
2019-04-16T20:44:08.449Z,101567.22
2019-04-16T20:46:36.121Z,101562.77
2019-04-16T20:49:09.898Z,101566.56
2019-04-16T20:51:37.691Z,101558.84
2019-04-16T20:54:12.232Z,101564.09
2019-04-16T20:56:40.644Z,101563.58
2019-04-16T20:59:13.518Z,101570.80
2019-04-16T21:01:43.543Z,101572.45
2019-04-16T21:04:13.473Z,101578.20
2019-04-16T21:06:43.444Z,101578.59
2019-04-16T21:09:13.419Z,101578.13
2019-04-16T21:11:43.276Z,101579.44
2019-04-16T21:14:13.263Z,101578.38
2019-04-16T21:16:43.200Z,101583.97
2019-04-16T21:19:22.927Z,101586.17
2019-04-16T21:21:44.982Z,101584.92
2019-04-16T21:24:14.929Z,101592.52
2019-04-16T21:26:45.226Z,101594.37
2019-04-16T21:29:34.849Z,101594.02
2019-04-16T21:32:09.868Z,101585.64
2019-04-16T21:34:50.419Z,101593.94
2019-04-16T21:37:38.369Z,101595.20
2019-04-16T21:40:08.499Z,101596.50
2019-04-16T21:42:38.866Z,101594.38
2019-04-16T21:45:09.560Z,101594.02
2019-04-16T21:47:39.440Z,101602.99
2019-04-16T21:50:09.478Z,101601.73
2019-04-16T21:52:39.319Z,101602.32
2019-04-16T21:55:09.987Z,101603.93
2019-04-16T21:57:42.853Z,101602.52
2019-04-16T22:00:33.231Z,101607.75
2019-04-16T22:03:09.166Z,101607.59
2019-04-16T22:05:37.842Z,101612.42
2019-04-16T22:08:07.831Z,101610.49
2019-04-16T22:10:39.231Z,101612.66
2019-04-16T22:13:09.322Z,101616.11
2019-04-16T22:15:39.212Z,101616.50
2019-04-16T22:18:10.057Z,101616.53
2019-04-16T22:20:42.345Z,101620.14
2019-04-16T22:23:11.907Z,101614.23
2019-04-16T22:25:41.991Z,101616.05
2019-04-16T22:28:12.985Z,101620.75
2019-04-16T22:30:43.003Z,101627.08
2019-04-16T22:33:12.919Z,101624.56
2019-04-16T22:35:42.876Z,101624.36
2019-04-16T22:38:14.510Z,101627.95
2019-04-16T22:40:54.981Z,101618.48
2019-04-16T22:43:43.543Z,101631.23
2019-04-16T22:46:32.384Z,101629.61
2019-04-16T22:49:02.583Z,101628.75
2019-04-16T22:51:32.705Z,101637.91
2019-04-16T22:54:02.821Z,101626.42
2019-04-16T22:56:46.171Z,101631.97
2019-04-16T22:59:15.964Z,101633.03
2019-04-16T23:01:45.857Z,101647.03
2019-04-16T23:04:15.802Z,101642.94
2019-04-16T23:06:45.590Z,101648.32
2019-04-16T23:09:17.009Z,101644.39
2019-04-16T23:11:46.998Z,101649.61
2019-04-16T23:14:17.738Z,101649.80
2019-04-16T23:16:47.637Z,101648.21
2019-04-16T23:19:20.192Z,101645.17
2019-04-16T23:21:49.305Z,101651.65
2019-04-16T23:24:22.842Z,101652.34
2019-04-16T23:26:51.012Z,101652.55
2019-04-16T23:29:20.994Z,101652.39
2019-04-16T23:31:55.229Z,101650.25
2019-04-16T23:34:22.480Z,101654.39
2019-04-16T23:36:52.551Z,101662.31
2019-04-16T23:39:22.605Z,101657.88
2019-04-16T23:41:52.703Z,101661.47
2019-04-16T23:44:41.734Z,101662.39
2019-04-16T23:47:42.013Z,101657.55
2019-04-16T23:50:26.125Z,101656.13
2019-04-16T23:53:07.229Z,101658.46
2019-04-16T23:55:49.005Z,101655.08
2019-04-16T23:58:28.598Z,101658.48
